IT-0011 weather

Aviosuperficie Avioclub Paternò
Paternò, Sicily, Italy

Public forecast

Using degrees Celsius for public forecast. Weather courtesy of forecast.io.

Closest aviation weather report (METAR) to Aviosuperficie Avioclub Paternò

Closest report is Sigonella Navy Air Base, 9.3 nm (17.2 km) S. Retrieved 2020/02/18 02:55 UTC (24 minutes ago):

LICZ 180255Z 26006KT CAVOK 04/04 Q1024 RMK SKC VIS MIN 9999 WIND THR28 24003KT WIND THR10 27005KT A3025 BLU

Closest aviation forecast (TAF) to Aviosuperficie Avioclub Paternò

Closest forecast is Sigonella Navy Air Base, 9.3 nm (17.2 km) S. Retrieved 2020-02-18 00:27 UTC (3 hours ago):

TAF LICZ 172300Z 1800/1824 27005KT CAVOK PROB30 TEMPO 1800/1804 4000 BR NSC BECMG 1813/1815 08011KT 9999 FEW030